createdAt,value
2022-09-17T00:01:39.423Z,65.88
2022-09-17T00:04:07.448Z,65.91
2022-09-17T00:06:36.079Z,65.98
2022-09-17T00:09:07.699Z,66.00
2022-09-17T00:11:39.185Z,65.94
2022-09-17T00:14:09.460Z,66.06
2022-09-17T00:16:43.546Z,66.00
2022-09-17T00:19:23.006Z,66.05
2022-09-17T00:21:52.115Z,66.13
2022-09-17T00:24:21.089Z,65.99
2022-09-17T00:26:50.468Z,66.10
2022-09-17T00:29:18.617Z,66.10
2022-09-17T00:31:47.279Z,66.20
2022-09-17T00:34:15.475Z,66.22
2022-09-17T00:36:43.526Z,66.18
2022-09-17T00:39:13.024Z,66.16
2022-09-17T00:41:40.920Z,66.24
2022-09-17T00:44:43.496Z,66.14
2022-09-17T00:47:27.952Z,66.23
2022-09-17T00:50:04.673Z,66.20
2022-09-17T00:52:44.205Z,66.39
2022-09-17T00:55:26.458Z,66.38
2022-09-17T00:57:59.058Z,66.35
2022-09-17T01:00:28.273Z,66.39
2022-09-17T01:02:56.022Z,66.46
2022-09-17T01:05:46.524Z,66.42
2022-09-17T01:08:26.865Z,66.46
2022-09-17T01:11:07.676Z,66.39
2022-09-17T01:13:52.315Z,66.40
2022-09-17T01:16:27.166Z,66.58
2022-09-17T01:19:35.357Z,66.52
2022-09-17T01:22:14.508Z,66.43
2022-09-17T01:25:00.861Z,66.50
2022-09-17T01:27:58.824Z,66.49
2022-09-17T01:30:59.691Z,66.47
2022-09-17T01:33:33.682Z,66.59
2022-09-17T01:36:37.184Z,66.71
2022-09-17T01:39:16.083Z,66.60
2022-09-17T01:41:57.493Z,66.65
2022-09-17T01:44:38.466Z,66.62
2022-09-17T01:47:21.318Z,66.66
2022-09-17T01:49:55.327Z,66.65
2022-09-17T01:52:26.415Z,66.68
2022-09-17T01:55:00.479Z,66.74
2022-09-17T01:57:45.256Z,66.68
2022-09-17T02:00:18.012Z,66.67
2022-09-17T02:03:05.848Z,66.71
2022-09-17T02:05:50.803Z,66.78
2022-09-17T02:08:26.387Z,66.82
2022-09-17T02:11:04.770Z,66.87
2022-09-17T02:13:45.314Z,66.93
2022-09-17T02:16:36.366Z,66.82
2022-09-17T02:19:26.205Z,66.89
2022-09-17T02:22:04.276Z,66.90
2022-09-17T02:24:43.135Z,66.98
2022-09-17T02:27:32.772Z,66.94
2022-09-17T02:30:01.496Z,67.13
2022-09-17T02:32:29.641Z,66.97
2022-09-17T02:34:57.741Z,66.95
2022-09-17T02:37:25.478Z,66.99
2022-09-17T02:39:54.471Z,67.14
2022-09-17T02:42:33.555Z,67.06
2022-09-17T02:45:23.024Z,67.05
2022-09-17T02:48:19.917Z,67.11
2022-09-17T02:51:09.953Z,67.27
2022-09-17T02:54:05.500Z,67.21
2022-09-17T02:57:26.456Z,67.28
2022-09-17T03:00:20.788Z,67.28
2022-09-17T03:02:51.169Z,67.22
2022-09-17T03:05:21.903Z,67.31
2022-09-17T03:07:50.995Z,67.13
2022-09-17T03:10:20.125Z,67.18
2022-09-17T03:12:48.161Z,67.29
2022-09-17T03:15:16.129Z,67.31
2022-09-17T03:17:44.200Z,67.30
2022-09-17T03:20:12.169Z,67.32
2022-09-17T03:22:39.842Z,67.38
2022-09-17T03:25:08.888Z,67.44
2022-09-17T03:27:36.690Z,67.46
2022-09-17T03:30:07.028Z,67.45
2022-09-17T03:32:35.082Z,67.43
2022-09-17T03:35:03.464Z,67.39
2022-09-17T03:37:33.165Z,67.42
2022-09-17T03:40:01.626Z,67.44
2022-09-17T03:42:29.828Z,67.47
2022-09-17T03:44:58.050Z,67.40
2022-09-17T03:47:26.376Z,67.38
2022-09-17T03:49:54.448Z,67.42
2022-09-17T03:52:22.732Z,67.38
2022-09-17T03:54:50.589Z,67.52
2022-09-17T03:57:18.456Z,67.53
2022-09-17T03:59:46.320Z,67.66
2022-09-17T04:02:14.446Z,67.61
2022-09-17T04:04:42.564Z,67.58
2022-09-17T04:07:10.944Z,67.68
2022-09-17T04:09:39.219Z,67.67
2022-09-17T04:12:07.290Z,67.67
2022-09-17T04:14:35.156Z,67.67
2022-09-17T04:17:03.349Z,67.81
2022-09-17T04:19:31.318Z,67.78
2022-09-17T04:22:00.439Z,67.85
2022-09-17T04:24:28.522Z,67.78
2022-09-17T04:26:56.330Z,67.85
2022-09-17T04:29:24.003Z,67.80
2022-09-17T04:31:51.857Z,67.86
2022-09-17T04:34:19.590Z,67.80
2022-09-17T04:36:47.488Z,67.82
2022-09-17T04:39:15.662Z,67.80
2022-09-17T04:41:43.400Z,67.93
2022-09-17T04:44:11.289Z,67.86
2022-09-17T04:46:39.410Z,67.82
2022-09-17T04:49:09.003Z,67.91
2022-09-17T04:51:36.836Z,67.84
2022-09-17T04:54:04.606Z,68.02
2022-09-17T04:56:33.012Z,67.97
2022-09-17T04:59:00.944Z,68.03
2022-09-17T05:01:28.693Z,68.02
2022-09-17T05:03:56.843Z,67.95
2022-09-17T05:06:24.649Z,67.97
2022-09-17T05:08:52.360Z,68.04
2022-09-17T05:11:20.478Z,67.94
2022-09-17T05:13:48.670Z,68.06
2022-09-17T05:16:17.102Z,68.03
2022-09-17T05:18:45.819Z,68.05
2022-09-17T05:21:13.486Z,68.17
2022-09-17T05:23:41.349Z,68.10
2022-09-17T05:26:09.417Z,68.13
2022-09-17T05:28:37.487Z,68.10
2022-09-17T05:31:05.722Z,68.18
2022-09-17T05:33:34.349Z,68.24
2022-09-17T05:36:02.898Z,68.27
2022-09-17T05:38:30.898Z,68.33
2022-09-17T05:40:58.796Z,68.23
2022-09-17T05:43:26.733Z,68.25
2022-09-17T05:45:54.910Z,68.27
2022-09-17T05:48:23.183Z,68.29
2022-09-17T05:50:51.255Z,68.40
2022-09-17T05:53:19.528Z,68.40
2022-09-17T05:55:48.623Z,68.27
2022-09-17T05:58:19.079Z,68.31
2022-09-17T06:00:49.050Z,68.37
2022-09-17T06:03:19.483Z,68.44
2022-09-17T06:05:59.246Z,68.33
2022-09-17T06:08:29.664Z,68.47
2022-09-17T06:11:02.278Z,68.56
2022-09-17T06:13:31.250Z,68.48
2022-09-17T06:16:00.307Z,68.37
2022-09-17T06:18:30.797Z,68.46
2022-09-17T06:21:01.336Z,68.32
2022-09-17T06:23:37.257Z,68.61
2022-09-17T06:26:06.331Z,68.57
2022-09-17T06:28:40.623Z,68.62
2022-09-17T06:31:12.079Z,68.71
2022-09-17T06:33:40.310Z,68.74
2022-09-17T06:36:14.004Z,68.52
2022-09-17T06:38:42.952Z,68.65
2022-09-17T06:41:12.506Z,68.52
2022-09-17T06:43:40.747Z,68.56
2022-09-17T06:46:10.682Z,68.47
2022-09-17T06:48:39.350Z,68.53
2022-09-17T06:51:10.797Z,68.44
2022-09-17T06:53:40.099Z,68.54
2022-09-17T06:56:09.644Z,68.51
2022-09-17T06:58:38.377Z,68.64
2022-09-17T07:01:06.961Z,68.53
2022-09-17T07:03:35.909Z,68.54
2022-09-17T07:06:04.992Z,68.52
2022-09-17T07:08:34.705Z,68.57
2022-09-17T07:11:02.944Z,68.47
2022-09-17T07:13:31.116Z,68.46
2022-09-17T07:16:01.591Z,68.51
2022-09-17T07:18:31.086Z,68.43
2022-09-17T07:21:05.005Z,68.44
2022-09-17T07:23:35.187Z,68.34
2022-09-17T07:26:12.523Z,68.36
2022-09-17T07:28:41.961Z,68.39
2022-09-17T07:31:16.082Z,68.35
2022-09-17T07:33:45.794Z,68.27
2022-09-17T07:36:18.279Z,68.32
2022-09-17T07:38:47.564Z,68.13
2022-09-17T07:41:17.683Z,68.15
2022-09-17T07:43:46.092Z,68.08
2022-09-17T07:46:19.679Z,68.06
2022-09-17T07:48:49.421Z,68.10
2022-09-17T07:51:23.190Z,68.03
2022-09-17T07:53:52.986Z,67.70
2022-09-17T07:56:22.026Z,67.71
2022-09-17T07:58:50.908Z,67.35
2022-09-17T08:01:21.494Z,67.25
2022-09-17T08:03:52.165Z,67.28
2022-09-17T08:06:28.481Z,67.16
2022-09-17T08:08:58.691Z,67.17
2022-09-17T08:11:54.412Z,67.12
2022-09-17T08:14:18.060Z,67.29
2022-09-17T08:16:48.577Z,67.32
2022-09-17T08:19:20.348Z,67.26
2022-09-17T08:21:49.442Z,67.24
2022-09-17T08:24:18.554Z,67.07
2022-09-17T08:26:46.452Z,67.11
2022-09-17T08:29:15.443Z,66.80
2022-09-17T08:31:44.530Z,66.82
2022-09-17T08:34:15.337Z,66.46
2022-09-17T08:36:43.891Z,66.20
2022-09-17T08:39:13.256Z,66.00
2022-09-17T08:42:00.875Z,66.04
2022-09-17T08:44:41.154Z,65.87
2022-09-17T08:47:18.781Z,65.89
2022-09-17T08:49:57.794Z,65.84
2022-09-17T08:52:59.551Z,65.77
2022-09-17T08:55:29.468Z,65.54
2022-09-17T08:58:22.245Z,65.58
2022-09-17T09:01:03.610Z,65.37
2022-09-17T09:04:05.153Z,65.26
2022-09-17T09:06:42.246Z,65.19
2022-09-17T09:09:17.040Z,64.81
2022-09-17T09:11:49.216Z,64.73
2022-09-17T09:14:24.645Z,64.64
2022-09-17T09:16:57.553Z,64.38
2022-09-17T09:19:30.519Z,64.37
2022-09-17T09:22:25.149Z,64.09
2022-09-17T09:24:52.809Z,64.17
2022-09-17T09:27:33.947Z,63.88
2022-09-17T09:30:11.614Z,63.95
2022-09-17T09:33:07.416Z,63.77
2022-09-17T09:35:41.517Z,63.64
2022-09-17T09:38:09.358Z,63.62
2022-09-17T09:40:56.895Z,63.56
2022-09-17T09:44:03.979Z,63.41
2022-09-17T09:46:52.173Z,63.36
2022-09-17T09:49:54.732Z,63.12
2022-09-17T09:52:35.616Z,62.84
2022-09-17T09:55:17.812Z,62.71
2022-09-17T09:57:58.750Z,62.67
2022-09-17T10:00:37.496Z,62.55
2022-09-17T10:03:23.432Z,62.42
2022-09-17T10:06:02.182Z,62.47
2022-09-17T10:08:37.266Z,62.43
2022-09-17T10:11:16.011Z,62.21
2022-09-17T10:13:44.011Z,61.98
2022-09-17T10:16:32.309Z,61.89
2022-09-17T10:19:06.609Z,61.77
2022-09-17T10:21:43.484Z,61.72
2022-09-17T10:24:32.598Z,61.70
2022-09-17T10:27:07.868Z,61.32
2022-09-17T10:29:36.855Z,61.11
2022-09-17T10:32:08.921Z,61.20
2022-09-17T10:34:41.553Z,61.11
2022-09-17T10:37:38.301Z,60.98
2022-09-17T10:40:28.488Z,60.90
2022-09-17T10:43:11.827Z,60.59
2022-09-17T10:46:01.266Z,60.64
2022-09-17T10:49:08.842Z,60.36
2022-09-17T10:51:41.844Z,60.23
2022-09-17T10:54:12.996Z,60.05
2022-09-17T10:56:51.329Z,60.16
2022-09-17T10:59:45.675Z,60.27
2022-09-17T11:02:51.150Z,59.91
2022-09-17T11:05:32.340Z,59.69
2022-09-17T11:08:40.923Z,59.51
2022-09-17T11:11:38.691Z,59.38
2022-09-17T11:14:41.355Z,59.36
2022-09-17T11:17:13.067Z,59.53
2022-09-17T11:19:55.499Z,58.97
2022-09-17T11:23:07.682Z,59.00
2022-09-17T11:26:04.221Z,58.84
2022-09-17T11:28:41.690Z,58.65
2022-09-17T11:31:44.241Z,58.65
2022-09-17T11:35:00.590Z,58.64
2022-09-17T11:37:39.977Z,58.70
2022-09-17T11:40:16.569Z,58.55
2022-09-17T11:42:56.364Z,58.44
2022-09-17T11:45:30.961Z,58.45
2022-09-17T11:48:11.472Z,58.25
2022-09-17T11:51:03.255Z,58.13
2022-09-17T11:53:39.947Z,57.88
2022-09-17T11:56:31.115Z,58.00
2022-09-17T11:59:16.575Z,57.87
2022-09-17T12:02:00.541Z,57.92
2022-09-17T12:04:54.436Z,57.78
2022-09-17T12:07:46.458Z,57.77
2022-09-17T12:10:46.008Z,57.63
2022-09-17T12:13:19.133Z,57.48
2022-09-17T12:16:03.157Z,57.41
2022-09-17T12:18:58.285Z,57.19
2022-09-17T12:21:50.548Z,57.14
2022-09-17T12:24:26.177Z,57.18
2022-09-17T12:27:11.861Z,57.10
2022-09-17T12:30:25.902Z,57.13
2022-09-17T12:33:16.411Z,56.97
2022-09-17T12:36:06.055Z,56.90
2022-09-17T12:39:13.208Z,56.83
2022-09-17T12:41:50.831Z,56.71
2022-09-17T12:44:47.516Z,56.78
2022-09-17T12:47:53.362Z,56.61
2022-09-17T12:50:47.101Z,56.61
2022-09-17T12:53:38.321Z,56.48
2022-09-17T12:56:48.859Z,56.48
2022-09-17T12:59:19.842Z,56.44
2022-09-17T13:01:58.435Z,56.56
2022-09-17T13:05:00.479Z,56.45
2022-09-17T13:07:52.481Z,56.30
2022-09-17T13:10:43.794Z,56.50
2022-09-17T13:13:24.023Z,56.27
2022-09-17T13:16:25.718Z,56.22
2022-09-17T13:19:16.536Z,56.15
2022-09-17T13:21:55.785Z,56.16
2022-09-17T13:24:30.481Z,56.07
2022-09-17T13:27:02.158Z,56.26
2022-09-17T13:29:47.427Z,56.04
2022-09-17T13:32:34.973Z,56.04
2022-09-17T13:35:13.161Z,56.05
2022-09-17T13:37:54.081Z,56.04
2022-09-17T13:40:29.753Z,55.89
2022-09-17T13:43:14.573Z,55.97
2022-09-17T13:46:12.987Z,55.96
2022-09-17T13:48:49.493Z,55.83
2022-09-17T13:51:32.796Z,55.82
2022-09-17T13:54:09.948Z,55.90
2022-09-17T13:56:48.430Z,55.85
2022-09-17T13:59:27.742Z,55.72
2022-09-17T14:02:03.685Z,55.68
2022-09-17T14:04:40.615Z,55.60
2022-09-17T14:07:23.958Z,55.67
2022-09-17T14:09:57.420Z,55.55
2022-09-17T14:12:42.589Z,55.67
2022-09-17T14:15:41.884Z,55.55
2022-09-17T14:18:39.079Z,55.54
2022-09-17T14:21:14.984Z,55.59
2022-09-17T14:23:52.994Z,55.51
2022-09-17T14:26:48.580Z,55.49
2022-09-17T14:29:42.672Z,55.38
2022-09-17T14:32:21.634Z,55.40
2022-09-17T14:34:51.842Z,55.38
2022-09-17T14:37:24.169Z,55.35
2022-09-17T14:39:53.689Z,55.51
2022-09-17T14:42:35.357Z,55.38
2022-09-17T14:45:12.149Z,55.28
2022-09-17T14:47:39.884Z,55.38
2022-09-17T14:50:21.898Z,55.38
2022-09-17T14:52:51.731Z,55.42
2022-09-17T14:55:26.822Z,55.39
2022-09-17T14:57:57.249Z,55.28
2022-09-17T15:00:39.220Z,55.29
2022-09-17T15:03:21.631Z,55.29
2022-09-17T15:05:51.748Z,55.29
2022-09-17T15:08:25.590Z,55.23
2022-09-17T15:10:59.606Z,55.19
2022-09-17T15:13:47.868Z,55.23
2022-09-17T15:16:31.055Z,55.21
2022-09-17T15:19:03.771Z,55.34
2022-09-17T15:21:45.706Z,55.32
2022-09-17T15:24:35.730Z,55.37
2022-09-17T15:27:22.263Z,55.33
2022-09-17T15:30:02.463Z,55.34
2022-09-17T15:32:34.824Z,55.27
2022-09-17T15:35:11.495Z,55.33
2022-09-17T15:38:23.298Z,55.23
2022-09-17T15:41:11.741Z,55.28
2022-09-17T15:43:42.017Z,55.25
2022-09-17T15:46:24.935Z,55.22
2022-09-17T15:49:04.729Z,55.36
2022-09-17T15:51:37.495Z,55.35
2022-09-17T15:54:07.159Z,55.31
2022-09-17T15:56:42.471Z,55.31
2022-09-17T15:59:28.046Z,55.37
2022-09-17T16:02:00.157Z,55.39
2022-09-17T16:04:32.739Z,55.49
2022-09-17T16:07:12.841Z,55.45
2022-09-17T16:09:50.838Z,55.44
2022-09-17T16:12:24.623Z,55.43
2022-09-17T16:14:56.134Z,55.46
2022-09-17T16:17:48.539Z,55.47
2022-09-17T16:20:24.331Z,55.55
2022-09-17T16:22:53.573Z,55.56
2022-09-17T16:25:28.571Z,55.62
2022-09-17T16:28:10.061Z,55.59
2022-09-17T16:30:42.065Z,55.56
2022-09-17T16:33:12.284Z,55.61
2022-09-17T16:35:43.350Z,55.64
2022-09-17T16:38:14.164Z,55.59
2022-09-17T16:40:47.372Z,55.67
2022-09-17T16:43:16.197Z,55.66
2022-09-17T16:46:02.290Z,55.64
2022-09-17T16:48:36.458Z,55.54
2022-09-17T16:51:12.002Z,55.61
2022-09-17T16:53:44.629Z,55.55
2022-09-17T16:56:18.495Z,55.64
2022-09-17T16:58:46.549Z,55.72
2022-09-17T17:01:19.473Z,55.77
2022-09-17T17:03:52.997Z,55.78
2022-09-17T17:06:26.127Z,55.88
2022-09-17T17:08:53.844Z,55.84
2022-09-17T17:11:29.466Z,55.90
2022-09-17T17:13:58.028Z,55.91
2022-09-17T17:16:28.956Z,55.99
2022-09-17T17:18:58.841Z,55.98
2022-09-17T17:21:27.087Z,55.92
2022-09-17T17:23:59.044Z,56.08
2022-09-17T17:26:26.944Z,56.18
2022-09-17T17:28:54.848Z,56.07
2022-09-17T17:31:23.688Z,56.05
2022-09-17T17:33:51.995Z,56.15
2022-09-17T17:36:19.961Z,56.17
2022-09-17T17:38:48.660Z,56.23
2022-09-17T17:41:18.182Z,56.30
2022-09-17T17:43:45.929Z,56.38
2022-09-17T17:46:15.282Z,56.43
2022-09-17T17:48:43.986Z,56.50
2022-09-17T17:51:13.213Z,56.60
2022-09-17T17:53:43.945Z,56.61
2022-09-17T17:56:13.144Z,56.50
2022-09-17T17:58:41.627Z,56.69
2022-09-17T18:01:20.685Z,56.66
2022-09-17T18:03:48.928Z,56.78
2022-09-17T18:06:18.740Z,56.81
2022-09-17T18:08:47.662Z,56.86
2022-09-17T18:11:15.804Z,56.86
2022-09-17T18:13:43.810Z,56.84
2022-09-17T18:16:13.902Z,57.05
2022-09-17T18:18:46.145Z,56.99
2022-09-17T18:21:23.143Z,57.01
2022-09-17T18:23:51.826Z,57.03
2022-09-17T18:26:23.660Z,57.11
2022-09-17T18:28:53.099Z,57.19
2022-09-17T18:31:25.863Z,57.22
2022-09-17T18:34:05.931Z,57.23
2022-09-17T18:36:36.174Z,57.33
2022-09-17T18:39:39.852Z,57.30
2022-09-17T18:41:54.417Z,57.48
2022-09-17T18:44:22.855Z,57.54
2022-09-17T18:46:51.846Z,57.51
2022-09-17T18:49:20.359Z,57.62
2022-09-17T18:51:48.337Z,57.59
2022-09-17T18:54:16.328Z,57.65
2022-09-17T18:56:44.363Z,57.71
2022-09-17T18:59:12.392Z,57.72
2022-09-17T19:01:40.355Z,57.69
2022-09-17T19:04:09.069Z,57.80
2022-09-17T19:06:37.626Z,57.85
2022-09-17T19:09:06.772Z,57.92
2022-09-17T19:11:36.357Z,57.93
2022-09-17T19:14:04.520Z,57.95
2022-09-17T19:16:33.259Z,58.15
2022-09-17T19:19:02.766Z,58.09
2022-09-17T19:21:31.551Z,58.23
2022-09-17T19:23:59.886Z,58.24
2022-09-17T19:26:27.745Z,58.35
2022-09-17T19:29:03.385Z,58.38
2022-09-17T19:31:31.278Z,58.38
2022-09-17T19:34:00.649Z,58.35
2022-09-17T19:36:29.959Z,58.56
2022-09-17T19:39:01.465Z,58.54
2022-09-17T19:41:32.966Z,58.56
2022-09-17T19:44:01.746Z,58.63
2022-09-17T19:46:31.911Z,58.65
2022-09-17T19:49:01.443Z,58.69
2022-09-17T19:51:30.948Z,58.73
2022-09-17T19:53:59.574Z,58.75
2022-09-17T19:56:28.665Z,58.87
2022-09-17T19:58:57.659Z,59.02
2022-09-17T20:01:27.092Z,58.90
2022-09-17T20:03:55.612Z,59.16
2022-09-17T20:06:24.322Z,59.18
2022-09-17T20:08:55.141Z,59.14
2022-09-17T20:11:25.618Z,59.17
2022-09-17T20:14:03.691Z,59.29
2022-09-17T20:16:34.330Z,59.36
2022-09-17T20:19:02.629Z,59.31
2022-09-17T20:21:31.411Z,59.35
2022-09-17T20:24:01.113Z,59.37
2022-09-17T20:26:29.623Z,59.53
2022-09-17T20:28:58.329Z,59.51
2022-09-17T20:31:30.359Z,59.77
2022-09-17T20:34:01.893Z,59.65
2022-09-17T20:36:33.627Z,59.64
2022-09-17T20:39:22.650Z,59.92
2022-09-17T20:41:52.785Z,59.91
2022-09-17T20:44:21.345Z,59.86
2022-09-17T20:46:50.516Z,59.96
2022-09-17T20:49:18.665Z,60.12
2022-09-17T20:51:47.202Z,60.15
2022-09-17T20:54:15.245Z,60.29
2022-09-17T20:56:44.725Z,60.31
2022-09-17T20:59:18.248Z,60.35
2022-09-17T21:01:50.620Z,60.50
2022-09-17T21:04:22.626Z,60.47
2022-09-17T21:06:53.616Z,60.59
2022-09-17T21:09:22.673Z,60.47
2022-09-17T21:11:51.537Z,60.74
2022-09-17T21:14:21.228Z,60.67
2022-09-17T21:16:51.392Z,60.76
2022-09-17T21:19:22.319Z,60.90
2022-09-17T21:21:55.627Z,60.87
2022-09-17T21:24:25.386Z,61.09
2022-09-17T21:26:54.592Z,61.03
2022-09-17T21:29:23.621Z,61.14
2022-09-17T21:31:54.162Z,61.09
2022-09-17T21:34:23.182Z,61.24
2022-09-17T21:36:53.092Z,61.32
2022-09-17T21:39:20.855Z,61.37
2022-09-17T21:41:49.936Z,61.42
2022-09-17T21:44:18.762Z,61.43
2022-09-17T21:46:50.916Z,61.55
2022-09-17T21:49:19.048Z,61.39
2022-09-17T21:51:47.940Z,61.46
2022-09-17T21:54:18.611Z,61.48
2022-09-17T21:56:48.150Z,61.61
2022-09-17T21:59:17.799Z,61.75
2022-09-17T22:01:52.136Z,61.75
2022-09-17T22:04:23.489Z,61.83
2022-09-17T22:06:54.825Z,61.85
2022-09-17T22:09:25.877Z,61.84
2022-09-17T22:11:54.167Z,61.92
2022-09-17T22:14:25.851Z,61.94
2022-09-17T22:16:58.817Z,61.97
2022-09-17T22:19:28.500Z,62.06
2022-09-17T22:21:59.089Z,62.19
2022-09-17T22:24:29.375Z,62.20
2022-09-17T22:26:58.683Z,62.22
2022-09-17T22:29:32.991Z,62.30
2022-09-17T22:32:01.057Z,62.40
2022-09-17T22:34:30.967Z,62.41
2022-09-17T22:36:59.977Z,62.58
2022-09-17T22:39:28.145Z,62.58
2022-09-17T22:41:56.770Z,62.45
2022-09-17T22:44:25.136Z,62.57
2022-09-17T22:46:52.911Z,62.75
2022-09-17T22:49:22.463Z,62.72
2022-09-17T22:51:51.268Z,62.69
2022-09-17T22:54:19.663Z,62.69
2022-09-17T22:56:49.381Z,62.91
2022-09-17T22:59:18.448Z,62.89
2022-09-17T23:01:48.717Z,63.15
2022-09-17T23:04:17.034Z,63.18
2022-09-17T23:06:45.487Z,63.26
2022-09-17T23:09:14.830Z,63.18
2022-09-17T23:11:43.309Z,63.23
2022-09-17T23:14:13.834Z,63.27
2022-09-17T23:16:47.741Z,63.30
2022-09-17T23:19:19.784Z,63.51
2022-09-17T23:21:47.799Z,63.59
2022-09-17T23:24:20.927Z,63.49
2022-09-17T23:26:50.343Z,63.60
2022-09-17T23:29:20.410Z,63.77
2022-09-17T23:31:49.304Z,63.73
2022-09-17T23:34:17.479Z,63.72
2022-09-17T23:36:45.954Z,63.89
2022-09-17T23:39:14.875Z,63.97
2022-09-17T23:41:45.928Z,64.01
2022-09-17T23:44:16.316Z,64.20
2022-09-17T23:46:47.757Z,64.26
2022-09-17T23:49:18.112Z,64.14
2022-09-17T23:51:47.691Z,64.22
2022-09-17T23:54:16.464Z,64.41
2022-09-17T23:56:45.329Z,64.39
2022-09-17T23:59:14.499Z,64.53
